createdAt,value
2022-09-04T00:00:19.261Z,67.38
2022-09-04T00:02:34.484Z,67.17
2022-09-04T00:05:00.565Z,67.25
2022-09-04T00:07:02.239Z,67.24
2022-09-04T00:09:24.696Z,67.33
2022-09-04T00:11:45.062Z,67.56
2022-09-04T00:13:53.041Z,67.36
2022-09-04T00:16:07.459Z,67.45
2022-09-04T00:18:13.937Z,67.55
2022-09-04T00:20:32.238Z,67.46
2022-09-04T00:22:58.324Z,67.49
2022-09-04T00:25:14.322Z,67.75
2022-09-04T00:27:23.851Z,67.87
2022-09-04T00:29:40.585Z,68.07
2022-09-04T00:31:51.142Z,68.31
2022-09-04T00:34:19.147Z,70.26
2022-09-04T00:36:23.105Z,72.31
2022-09-04T00:38:47.934Z,73.01
2022-09-04T00:41:25.445Z,73.48
2022-09-04T00:43:48.718Z,73.47
2022-09-04T00:46:18.489Z,72.70
2022-09-04T00:48:52.187Z,72.06
2022-09-04T00:50:59.888Z,71.30
2022-09-04T00:53:06.044Z,70.82
2022-09-04T00:55:29.405Z,70.75
2022-09-04T00:57:56.617Z,70.03
2022-09-04T01:00:18.186Z,69.61
2022-09-04T01:02:38.542Z,70.47
2022-09-04T01:05:07.875Z,70.98
2022-09-04T01:07:31.363Z,71.11
2022-09-04T01:09:32.974Z,70.78
2022-09-04T01:11:51.629Z,70.67
2022-09-04T01:14:29.738Z,70.69
2022-09-04T01:16:37.820Z,70.49
2022-09-04T01:18:59.946Z,70.28
2022-09-04T01:21:31.045Z,70.32
2022-09-04T01:24:08.901Z,70.29
2022-09-04T01:26:21.394Z,70.04
2022-09-04T01:28:48.317Z,70.08
2022-09-04T01:30:56.306Z,70.12
2022-09-04T01:33:19.350Z,69.98
2022-09-04T01:35:44.828Z,69.98
2022-09-04T01:38:04.485Z,69.56
2022-09-04T01:40:20.971Z,69.67
2022-09-04T01:42:30.343Z,69.60
2022-09-04T01:44:33.582Z,69.23
2022-09-04T01:46:58.162Z,69.18
2022-09-04T01:49:07.336Z,69.47
2022-09-04T01:51:16.388Z,69.32
2022-09-04T01:53:24.917Z,69.44
2022-09-04T01:55:57.421Z,69.30
2022-09-04T01:58:36.575Z,69.65
2022-09-04T02:01:15.847Z,72.79
2022-09-04T02:03:32.958Z,76.22
2022-09-04T02:06:19.376Z,77.44
2022-09-04T02:08:27.093Z,78.12
2022-09-04T02:10:33.644Z,77.98
2022-09-04T02:12:58.389Z,77.66
2022-09-04T02:15:31.188Z,78.40
2022-09-04T02:17:59.016Z,79.42
2022-09-04T02:20:29.677Z,79.73
2022-09-04T02:22:52.829Z,80.23
2022-09-04T02:25:16.171Z,79.94
2022-09-04T02:27:24.065Z,79.87
2022-09-04T02:30:04.202Z,79.11
2022-09-04T02:32:14.243Z,79.41
2022-09-04T02:34:25.432Z,79.47
2022-09-04T02:36:34.026Z,77.91
2022-09-04T02:39:11.928Z,77.12
2022-09-04T02:41:26.741Z,77.26
2022-09-04T02:43:42.843Z,77.53
2022-09-04T02:46:05.702Z,78.99
2022-09-04T02:48:18.727Z,79.18
2022-09-04T02:50:39.023Z,78.83
2022-09-04T02:52:59.634Z,77.94
2022-09-04T02:55:29.168Z,76.98
2022-09-04T02:57:58.352Z,76.66
2022-09-04T03:00:18.366Z,78.03
2022-09-04T03:02:34.759Z,79.63
2022-09-04T03:04:50.293Z,81.58
2022-09-04T03:07:11.484Z,82.80
2022-09-04T03:09:18.160Z,83.46
2022-09-04T03:11:33.828Z,83.24
2022-09-04T03:13:56.480Z,81.63
2022-09-04T03:16:21.307Z,83.52
2022-09-04T03:18:52.964Z,85.32
2022-09-04T03:21:03.436Z,86.26
2022-09-04T03:23:12.917Z,86.63
2022-09-04T03:25:23.946Z,86.36
2022-09-04T03:27:26.612Z,86.49
2022-09-04T03:29:51.292Z,86.47
2022-09-04T03:32:17.852Z,85.25
2022-09-04T03:34:25.151Z,84.58
2022-09-04T03:37:05.546Z,84.20
2022-09-04T03:39:46.764Z,83.36
2022-09-04T03:42:20.086Z,83.66
2022-09-04T03:44:40.288Z,83.93
2022-09-04T03:47:00.453Z,84.27
2022-09-04T03:49:23.856Z,83.15
2022-09-04T03:51:46.153Z,83.42
2022-09-04T03:54:16.420Z,82.68
2022-09-04T03:56:39.796Z,82.27
2022-09-04T03:58:53.586Z,80.84
2022-09-04T04:00:58.213Z,80.64
2022-09-04T04:03:38.822Z,80.55
2022-09-04T04:05:59.011Z,79.85
2022-09-04T04:08:06.763Z,78.87
2022-09-04T04:10:14.306Z,78.45
2022-09-04T04:12:39.345Z,78.10
2022-09-04T04:14:51.450Z,77.90
2022-09-04T04:17:00.341Z,78.04
2022-09-04T04:19:14.497Z,77.95
2022-09-04T04:21:54.898Z,78.06
2022-09-04T04:23:59.473Z,78.08
2022-09-04T04:26:10.962Z,78.23
2022-09-04T04:28:32.775Z,77.84
2022-09-04T04:30:50.295Z,77.66
2022-09-04T04:33:08.451Z,77.26
2022-09-04T04:35:18.600Z,76.84
2022-09-04T04:37:37.041Z,76.41
2022-09-04T04:39:58.864Z,76.42
2022-09-04T04:42:13.264Z,76.75
2022-09-04T04:44:50.147Z,76.73
2022-09-04T04:47:15.813Z,76.74
2022-09-04T04:49:33.521Z,75.98
2022-09-04T04:51:47.130Z,76.03
2022-09-04T04:54:13.505Z,76.52
2022-09-04T04:56:22.730Z,76.53
2022-09-04T04:58:27.513Z,76.38
2022-09-04T05:00:41.171Z,75.87
2022-09-04T05:03:01.384Z,75.85
2022-09-04T05:05:18.468Z,75.19
2022-09-04T05:07:42.231Z,74.88
2022-09-04T05:09:58.268Z,74.41
2022-09-04T05:12:06.783Z,74.09
2022-09-04T05:14:47.523Z,73.68
2022-09-04T05:17:31.944Z,73.33
2022-09-04T05:19:39.783Z,73.58
2022-09-04T05:21:56.041Z,72.95
2022-09-04T05:24:05.224Z,73.01
2022-09-04T05:26:07.025Z,72.64
2022-09-04T05:28:20.412Z,72.46
2022-09-04T05:30:47.676Z,72.20
2022-09-04T05:33:15.476Z,72.36
2022-09-04T05:35:35.328Z,72.69
2022-09-04T05:37:43.261Z,72.69
2022-09-04T05:40:04.484Z,72.19
2022-09-04T05:42:06.957Z,72.75
2022-09-04T05:44:35.436Z,73.18
2022-09-04T05:47:26.478Z,73.71
2022-09-04T05:49:50.378Z,75.46
2022-09-04T05:52:09.000Z,76.77
2022-09-04T05:54:42.909Z,76.90
2022-09-04T05:57:02.317Z,77.09
2022-09-04T05:59:33.077Z,77.24
2022-09-04T06:01:59.629Z,77.32
2022-09-04T06:04:10.384Z,77.57
2022-09-04T06:06:12.415Z,77.57
2022-09-04T06:09:06.475Z,78.47
2022-09-04T06:11:32.369Z,78.85
2022-09-04T06:13:50.477Z,78.29
2022-09-04T06:16:10.849Z,76.13
2022-09-04T06:18:27.694Z,75.91
2022-09-04T06:20:50.940Z,75.20
2022-09-04T06:23:06.081Z,75.87
2022-09-04T06:25:10.756Z,75.81
2022-09-04T06:27:31.032Z,74.67
2022-09-04T06:29:48.430Z,73.63
2022-09-04T06:31:53.124Z,72.89
2022-09-04T06:34:01.074Z,71.88
2022-09-04T06:36:22.129Z,70.95
2022-09-04T06:38:43.178Z,70.57
2022-09-04T06:41:08.655Z,69.42
2022-09-04T06:43:19.558Z,69.02
2022-09-04T06:45:35.537Z,70.59
2022-09-04T06:48:02.272Z,70.94
2022-09-04T06:50:18.898Z,69.82
2022-09-04T06:52:30.093Z,70.02
2022-09-04T06:54:46.581Z,69.81
2022-09-04T06:57:00.306Z,69.64
2022-09-04T06:59:14.543Z,68.58
2022-09-04T07:01:19.754Z,68.21
2022-09-04T07:03:52.389Z,67.24
2022-09-04T07:06:23.423Z,67.34
2022-09-04T07:08:34.018Z,67.81
2022-09-04T07:10:41.664Z,67.31
2022-09-04T07:13:23.599Z,66.41
2022-09-04T07:15:50.204Z,65.29
2022-09-04T07:18:18.240Z,65.32
2022-09-04T07:20:36.420Z,66.18
2022-09-04T07:23:03.989Z,66.18
2022-09-04T07:25:26.396Z,66.27
2022-09-04T07:27:42.840Z,65.94
2022-09-04T07:30:17.438Z,66.55
2022-09-04T07:32:38.269Z,66.88
2022-09-04T07:34:39.853Z,67.40
2022-09-04T07:36:56.674Z,67.05
2022-09-04T07:39:04.102Z,65.99
2022-09-04T07:41:20.044Z,65.76
2022-09-04T07:43:37.038Z,64.49
2022-09-04T07:45:55.346Z,65.62
2022-09-04T07:48:17.728Z,65.71
2022-09-04T07:50:23.118Z,65.40
2022-09-04T07:52:34.709Z,65.49
2022-09-04T07:54:36.421Z,65.30
2022-09-04T07:57:16.508Z,65.72
2022-09-04T07:59:31.086Z,66.23
2022-09-04T08:02:03.542Z,66.96
2022-09-04T08:04:42.332Z,66.62
2022-09-04T08:06:50.013Z,65.43
2022-09-04T08:09:23.860Z,65.35
2022-09-04T08:11:45.508Z,66.06
2022-09-04T08:14:17.021Z,65.00
2022-09-04T08:16:32.868Z,64.81
2022-09-04T08:18:48.148Z,65.97
2022-09-04T08:21:21.608Z,66.14
2022-09-04T08:24:01.914Z,65.87
2022-09-04T08:26:14.626Z,65.23
2022-09-04T08:28:44.219Z,64.78
2022-09-04T08:31:18.261Z,64.28
2022-09-04T08:33:39.882Z,63.79
2022-09-04T08:35:59.804Z,63.28
2022-09-04T08:38:23.257Z,62.76
2022-09-04T08:41:06.922Z,62.15
2022-09-04T08:43:30.304Z,61.67
2022-09-04T08:46:06.969Z,61.86
2022-09-04T08:48:27.405Z,60.35
2022-09-04T08:50:39.826Z,59.66
2022-09-04T08:52:54.067Z,58.55
2022-09-04T08:55:21.626Z,58.22
2022-09-04T09:00:10.682Z,57.63
2022-09-04T09:02:21.325Z,56.28
2022-09-04T09:04:53.022Z,54.91
2022-09-04T09:07:19.457Z,54.29
2022-09-04T09:09:58.422Z,53.06
2022-09-04T09:12:09.219Z,52.58
2022-09-04T09:14:29.230Z,51.51
2022-09-04T09:16:52.623Z,52.65
2022-09-04T09:19:03.155Z,52.29
2022-09-04T09:21:49.478Z,52.34
2022-09-04T09:24:35.958Z,52.36
2022-09-04T09:27:02.152Z,51.23
2022-09-04T09:29:16.278Z,51.29
2022-09-04T09:31:34.518Z,52.33
2022-09-04T09:33:46.973Z,52.33
2022-09-04T09:36:09.343Z,52.26
2022-09-04T09:38:29.702Z,52.20
2022-09-04T09:40:32.273Z,51.92
2022-09-04T09:42:38.482Z,51.93
2022-09-04T09:45:15.534Z,51.85
2022-09-04T09:47:26.544Z,51.65
2022-09-04T09:49:28.106Z,50.80
2022-09-04T09:52:13.941Z,51.08
2022-09-04T09:54:38.488Z,50.79
2022-09-04T09:56:53.517Z,51.02
2022-09-04T09:59:19.989Z,50.89
2022-09-04T10:01:24.834Z,50.06
2022-09-04T10:03:39.022Z,50.56
2022-09-04T10:05:46.385Z,49.10
2022-09-04T10:08:06.689Z,50.26
2022-09-04T10:10:31.024Z,50.76
2022-09-04T10:13:01.406Z,50.46
2022-09-04T10:15:21.733Z,50.82
2022-09-04T10:18:20.661Z,51.03
2022-09-04T10:20:46.383Z,50.84
2022-09-04T10:23:24.930Z,50.10
2022-09-04T10:26:05.211Z,48.96
2022-09-04T10:28:21.885Z,48.75
2022-09-04T10:30:24.566Z,48.88
2022-09-04T10:32:33.100Z,48.81
2022-09-04T10:34:54.621Z,47.50
2022-09-04T10:37:33.847Z,47.54
2022-09-04T10:40:38.551Z,47.26
2022-09-04T10:43:10.217Z,47.26
2022-09-04T10:45:25.951Z,46.90
2022-09-04T10:48:03.656Z,46.58
2022-09-04T10:50:41.827Z,46.48
2022-09-04T10:53:01.542Z,45.40
2022-09-04T10:55:29.913Z,47.42
2022-09-04T10:58:00.729Z,47.74
2022-09-04T11:00:14.140Z,47.28
2022-09-04T11:02:53.330Z,47.13
2022-09-04T11:04:59.881Z,46.50
2022-09-04T11:07:28.564Z,46.29
2022-09-04T11:09:39.798Z,45.75
2022-09-04T11:12:03.327Z,44.95
2022-09-04T11:14:25.539Z,44.22
2022-09-04T11:16:48.974Z,44.33
2022-09-04T11:19:20.894Z,43.63
2022-09-04T11:21:32.613Z,43.13
2022-09-04T11:23:52.986Z,44.18
2022-09-04T11:26:31.842Z,44.04
2022-09-04T11:28:40.350Z,42.84
2022-09-04T11:30:48.610Z,42.90
2022-09-04T11:33:13.353Z,42.90
2022-09-04T11:35:22.191Z,43.35
2022-09-04T11:37:57.822Z,43.82
2022-09-04T11:40:16.609Z,43.80
2022-09-04T11:42:43.009Z,43.85
2022-09-04T11:45:05.800Z,43.41
2022-09-04T11:47:26.249Z,43.29
2022-09-04T11:49:52.610Z,42.96
2022-09-04T11:52:09.690Z,43.23
2022-09-04T11:54:41.936Z,43.21
2022-09-04T11:56:52.702Z,44.23
2022-09-04T11:59:15.537Z,44.07
2022-09-04T12:01:29.806Z,44.68
2022-09-04T12:03:56.362Z,44.20
2022-09-04T12:06:19.478Z,43.52
2022-09-04T12:08:44.157Z,43.88
2022-09-04T12:11:25.181Z,44.10
2022-09-04T12:14:02.260Z,43.84
2022-09-04T12:16:27.893Z,43.58
2022-09-04T12:18:54.632Z,43.41
2022-09-04T12:21:18.321Z,43.51
2022-09-04T12:23:28.689Z,44.25
2022-09-04T12:25:49.798Z,45.32
2022-09-04T12:28:05.220Z,44.55
2022-09-04T12:30:33.481Z,44.10
2022-09-04T12:32:57.101Z,44.52
2022-09-04T12:35:17.203Z,44.79
2022-09-04T12:37:43.640Z,44.28
2022-09-04T12:40:05.309Z,44.55
2022-09-04T12:42:16.745Z,44.36
2022-09-04T12:44:50.513Z,44.22
2022-09-04T12:47:04.688Z,44.29
2022-09-04T12:49:26.214Z,44.71
2022-09-04T12:51:35.949Z,44.97
2022-09-04T12:53:54.344Z,44.51
2022-09-04T12:56:28.279Z,44.49
2022-09-04T12:59:01.982Z,44.40
2022-09-04T13:01:30.520Z,43.89
2022-09-04T13:04:02.476Z,43.67
2022-09-04T13:06:19.902Z,43.96
2022-09-04T13:08:44.475Z,43.28
2022-09-04T13:10:55.311Z,42.80
2022-09-04T13:13:18.241Z,43.00
2022-09-04T13:15:38.480Z,42.87
2022-09-04T13:17:58.452Z,42.58
2022-09-04T13:20:20.883Z,42.71
2022-09-04T13:22:47.556Z,42.49
2022-09-04T13:25:15.392Z,42.28
2022-09-04T13:27:34.258Z,42.74
2022-09-04T13:30:02.893Z,42.63
2022-09-04T13:32:24.008Z,41.91
2022-09-04T13:34:35.720Z,42.16
2022-09-04T13:36:57.667Z,44.36
2022-09-04T13:39:05.830Z,45.13
2022-09-04T13:41:24.025Z,45.21
2022-09-04T13:43:55.031Z,45.50
2022-09-04T13:46:00.347Z,46.00
2022-09-04T13:48:16.051Z,45.85
2022-09-04T13:50:44.203Z,46.10
2022-09-04T13:52:46.883Z,46.63
2022-09-04T13:54:57.892Z,46.85
2022-09-04T13:57:16.137Z,46.33
2022-09-04T13:59:20.743Z,46.15
2022-09-04T14:01:25.811Z,46.59
2022-09-04T14:03:38.623Z,47.11
2022-09-04T14:05:40.468Z,47.13
2022-09-04T14:07:45.495Z,46.95
2022-09-04T14:09:48.971Z,47.75
2022-09-04T14:11:59.491Z,48.60
2022-09-04T14:14:10.980Z,48.75
2022-09-04T14:16:15.253Z,48.63
2022-09-04T14:18:45.365Z,48.23
2022-09-04T14:21:00.965Z,48.95
2022-09-04T14:23:28.773Z,48.81
2022-09-04T14:26:04.062Z,48.41
2022-09-04T14:28:08.671Z,48.52
2022-09-04T14:30:18.459Z,48.90
2022-09-04T14:32:47.771Z,50.02
2022-09-04T14:35:02.907Z,50.05
2022-09-04T14:37:42.650Z,49.54
2022-09-04T14:40:10.275Z,50.21
2022-09-04T14:42:31.122Z,49.93
2022-09-04T14:44:42.632Z,50.47
2022-09-04T14:47:00.718Z,49.78
2022-09-04T14:49:09.022Z,49.56
2022-09-04T14:51:15.437Z,49.41
2022-09-04T14:53:26.351Z,48.70
2022-09-04T14:55:52.009Z,48.98
2022-09-04T14:58:10.827Z,49.26
2022-09-04T15:00:17.371Z,49.08
2022-09-04T15:02:23.840Z,49.36
2022-09-04T15:04:34.130Z,49.40
2022-09-04T15:06:54.715Z,49.49
2022-09-04T15:09:26.538Z,49.97
2022-09-04T15:11:33.364Z,50.23
2022-09-04T15:13:47.269Z,50.11
2022-09-04T15:15:58.413Z,50.46
2022-09-04T15:18:23.576Z,50.84
2022-09-04T15:20:28.404Z,50.65
2022-09-04T15:22:47.597Z,51.21
2022-09-04T15:25:58.303Z,51.32
2022-09-04T15:28:04.575Z,52.11
2022-09-04T15:30:09.105Z,52.39
2022-09-04T15:32:14.228Z,52.19
2022-09-04T15:34:21.550Z,53.01
2022-09-04T15:36:24.158Z,53.20
2022-09-04T15:38:26.315Z,53.45
2022-09-04T15:40:35.298Z,53.95
2022-09-04T15:42:43.183Z,54.24
2022-09-04T15:44:46.945Z,54.54
2022-09-04T15:47:04.020Z,55.00
2022-09-04T15:49:15.119Z,55.42
2022-09-04T15:51:56.235Z,55.85
2022-09-04T15:54:15.445Z,55.58
2022-09-04T15:56:17.010Z,56.21
2022-09-04T15:58:37.814Z,56.65
2022-09-04T16:01:16.672Z,56.95
2022-09-04T16:03:29.453Z,56.77
2022-09-04T16:05:45.190Z,56.73
2022-09-04T16:08:05.469Z,56.94
2022-09-04T16:10:25.947Z,57.17
2022-09-04T16:12:32.630Z,57.84
2022-09-04T16:14:44.455Z,59.18
2022-09-04T16:16:53.487Z,60.27
2022-09-04T16:19:26.606Z,61.91
2022-09-04T16:21:32.285Z,62.82
2022-09-04T16:23:38.340Z,63.54
2022-09-04T16:25:48.289Z,63.84
2022-09-04T16:27:54.464Z,64.19
2022-09-04T16:29:59.968Z,63.99
2022-09-04T16:32:03.900Z,63.95
2022-09-04T16:34:26.252Z,64.25
2022-09-04T16:36:41.527Z,65.14
2022-09-04T16:39:13.418Z,65.81
2022-09-04T16:41:26.395Z,65.70
2022-09-04T16:43:34.264Z,65.56
2022-09-04T16:46:13.040Z,65.12
2022-09-04T16:48:34.983Z,65.31
2022-09-04T16:50:48.168Z,65.89
2022-09-04T16:53:13.792Z,66.36
2022-09-04T16:55:28.954Z,66.13
2022-09-04T16:57:42.094Z,66.86
2022-09-04T16:59:53.770Z,66.92
2022-09-04T17:02:01.215Z,66.37
2022-09-04T17:04:19.637Z,66.61
2022-09-04T17:06:30.513Z,66.90
2022-09-04T17:08:36.951Z,67.00
2022-09-04T17:11:04.385Z,66.90
2022-09-04T17:13:29.876Z,66.33
2022-09-04T17:15:55.386Z,64.93
2022-09-04T17:17:59.086Z,65.90
2022-09-04T17:20:00.572Z,66.49
2022-09-04T17:28:55.846Z,67.32
2022-09-04T17:29:13.596Z,68.21
2022-09-04T17:29:18.361Z,69.40
2022-09-04T17:30:50.652Z,69.68
2022-09-04T17:37:13.364Z,70.29
2022-09-04T17:40:33.674Z,71.01
2022-09-04T17:40:47.087Z,71.16
2022-09-04T17:41:39.703Z,69.34
2022-09-04T17:44:22.365Z,69.73
2022-09-04T17:46:32.479Z,70.34
2022-09-04T17:48:41.237Z,69.14
2022-09-04T17:50:53.045Z,69.53
2022-09-04T17:53:00.851Z,70.05
2022-09-04T17:55:08.662Z,71.20
2022-09-04T17:57:15.062Z,72.33
2022-09-04T17:59:19.281Z,72.02
2022-09-04T18:01:27.454Z,71.42
2022-09-04T18:03:33.800Z,71.50
2022-09-04T18:05:51.658Z,70.90
2022-09-04T18:08:20.338Z,70.60
2022-09-04T18:10:31.456Z,70.68
2022-09-04T18:12:51.553Z,69.40
2022-09-04T18:15:16.478Z,70.23
2022-09-04T18:17:36.580Z,69.46
2022-09-04T18:19:38.321Z,69.22
2022-09-04T18:21:59.226Z,69.21
2022-09-04T18:24:16.617Z,70.23
2022-09-04T18:26:41.763Z,70.79
2022-09-04T18:28:55.265Z,71.46
2022-09-04T18:37:11.170Z,71.54
2022-09-04T18:37:25.490Z,71.57
2022-09-04T18:37:26.391Z,71.72
2022-09-04T18:39:50.623Z,71.14
2022-09-04T18:49:00.347Z,71.60
2022-09-04T18:50:39.641Z,71.59
2022-09-04T18:50:44.270Z,72.04
2022-09-04T18:50:45.116Z,71.64
2022-09-04T18:51:35.038Z,71.89
2022-09-04T18:53:44.074Z,71.84
2022-09-04T18:55:51.385Z,72.04
2022-09-04T18:58:19.644Z,72.04
2022-09-04T19:00:54.087Z,72.38
2022-09-04T19:03:05.777Z,72.74
2022-09-04T19:05:09.281Z,72.76
2022-09-04T19:07:32.718Z,73.28
2022-09-04T19:09:55.503Z,73.31
2022-09-04T19:12:02.838Z,73.52
2022-09-04T19:14:10.954Z,73.43
2022-09-04T19:16:18.511Z,73.82
2022-09-04T19:18:26.798Z,73.64
2022-09-04T19:20:46.732Z,73.60
2022-09-04T19:22:54.122Z,73.65
2022-09-04T19:25:31.832Z,73.47
2022-09-04T19:27:39.838Z,73.51
2022-09-04T19:30:19.972Z,73.67
2022-09-04T19:32:34.213Z,73.79
2022-09-04T19:34:42.211Z,73.81
2022-09-04T19:36:54.970Z,73.67
2022-09-04T19:45:24.964Z,74.65
2022-09-04T19:45:59.170Z,75.06
2022-09-04T19:46:17.918Z,76.58
2022-09-04T19:47:27.335Z,75.96
2022-09-04T19:53:17.579Z,75.50
2022-09-04T19:53:33.251Z,75.50
2022-09-04T19:54:44.261Z,75.12
2022-09-04T19:57:32.941Z,74.72
2022-09-04T19:59:45.528Z,74.76
2022-09-04T20:02:02.783Z,74.58
2022-09-04T20:04:25.511Z,75.08
2022-09-04T20:06:32.704Z,74.99
2022-09-04T20:08:40.760Z,74.74
2022-09-04T20:10:46.172Z,75.15
2022-09-04T20:12:53.672Z,75.18
2022-09-04T20:15:11.555Z,75.38
2022-09-04T20:17:44.454Z,75.21
2022-09-04T20:19:48.944Z,74.99
2022-09-04T20:22:15.356Z,74.17
2022-09-04T20:24:28.452Z,74.03
2022-09-04T20:26:42.454Z,73.54
2022-09-04T20:28:48.395Z,73.89
2022-09-04T20:31:05.219Z,74.22
2022-09-04T20:33:27.300Z,74.48
2022-09-04T20:35:35.548Z,74.43
2022-09-04T20:37:40.215Z,74.36
2022-09-04T20:40:14.115Z,74.64
2022-09-04T20:42:44.715Z,74.69
2022-09-04T20:47:26.157Z,74.11
2022-09-04T20:52:51.055Z,73.99
2022-09-04T20:52:55.060Z,72.80
2022-09-04T20:53:04.598Z,73.31
2022-09-04T20:55:33.513Z,71.56
2022-09-04T21:02:41.012Z,71.48
2022-09-04T21:03:24.385Z,72.39
2022-09-04T21:03:28.197Z,73.11
2022-09-04T21:05:59.827Z,72.82
2022-09-04T21:08:35.874Z,73.19
2022-09-04T21:10:55.456Z,72.69
2022-09-04T21:13:13.376Z,72.77
2022-09-04T21:15:22.128Z,73.33
2022-09-04T21:17:34.754Z,73.43
2022-09-04T21:20:12.798Z,73.13
2022-09-04T21:22:49.225Z,71.79
2022-09-04T21:25:25.909Z,72.66
2022-09-04T21:27:54.885Z,73.17
2022-09-04T21:30:13.099Z,72.79
2022-09-04T21:32:30.113Z,72.46
2022-09-04T21:34:54.031Z,72.49
2022-09-04T21:37:05.802Z,72.11
2022-09-04T21:39:41.358Z,72.17
2022-09-04T21:42:17.307Z,71.73
2022-09-04T21:44:34.493Z,72.38
2022-09-04T21:46:48.288Z,72.49
2022-09-04T21:49:27.056Z,72.92
2022-09-04T21:51:37.584Z,73.37
2022-09-04T21:55:13.291Z,73.33
2022-09-04T22:02:27.721Z,74.12
2022-09-04T22:02:43.612Z,74.55
2022-09-04T22:02:54.412Z,74.78
2022-09-04T22:05:07.309Z,74.51
2022-09-04T22:10:54.223Z,74.93
2022-09-04T22:13:28.351Z,75.17
2022-09-04T22:13:42.964Z,75.51
2022-09-04T22:15:10.570Z,75.18
2022-09-04T22:17:41.206Z,75.75
2022-09-04T22:19:43.006Z,75.74
2022-09-04T22:22:15.770Z,75.48
2022-09-04T22:24:20.152Z,75.27
2022-09-04T22:26:42.132Z,75.49
2022-09-04T22:28:43.701Z,75.45
2022-09-04T22:31:14.848Z,75.79
2022-09-04T22:33:35.953Z,74.60
2022-09-04T22:36:05.575Z,73.44
2022-09-04T22:38:28.819Z,73.38
2022-09-04T22:40:56.378Z,73.67
2022-09-04T22:43:13.491Z,73.95
2022-09-04T22:45:52.378Z,73.84
2022-09-04T22:48:15.710Z,74.41
2022-09-04T22:51:11.490Z,73.82
2022-09-04T22:53:44.344Z,73.90
2022-09-04T22:56:23.339Z,73.16
2022-09-04T22:58:32.336Z,72.83
2022-09-04T23:01:02.422Z,73.08
2022-09-04T23:03:33.200Z,73.10
2022-09-04T23:07:17.284Z,73.53
2022-09-04T23:13:47.608Z,73.38
2022-09-04T23:13:52.518Z,73.16
2022-09-04T23:14:05.215Z,73.15
2022-09-04T23:16:28.266Z,72.81
2022-09-04T23:26:31.759Z,73.12
2022-09-04T23:26:38.422Z,72.87
2022-09-04T23:26:49.611Z,73.32
2022-09-04T23:27:01.563Z,73.34
2022-09-04T23:29:09.577Z,73.45
2022-09-04T23:31:19.980Z,74.00
2022-09-04T23:33:40.995Z,73.67
2022-09-04T23:35:42.694Z,73.39
2022-09-04T23:38:17.019Z,73.45
2022-09-04T23:40:35.683Z,73.41
2022-09-04T23:43:25.593Z,73.62
2022-09-04T23:45:36.790Z,73.61
2022-09-04T23:48:19.243Z,73.66
2022-09-04T23:50:38.720Z,73.69
2022-09-04T23:52:52.529Z,74.33
2022-09-04T23:54:56.686Z,74.15
2022-09-04T23:57:11.256Z,73.80
2022-09-04T23:59:44.307Z,73.58
